Time;durP1;ratioP1;P1;durP2;ratioP2;P2;SDS_P1;SDS_P2;PMS_P1;PMS_P2;Temp;Humidity;BMP_temperature;BMP_pressure;BME280_temperature;BME280_humidity;BME280_pressure;Samples;Min_cycle;Max_cycle;Signal;HPM_P1;HPM_P2
2022/10/03 00:06:36;;;;;;;2.50;0.57;;;9.90;99.90;;;;;;21060639;28;20036;-82
2022/10/03 00:16:58;;;;;;;1.45;0.65;;;9.80;99.90;;;;;;21079525;28;22035;-82
2022/10/03 00:27:12;;;;;;;1.23;0.50;;;9.70;99.90;;;;;;21092663;27;20048;-82
2022/10/03 00:37:28;;;;;;;0.85;0.38;;;9.70;99.90;;;;;;21085394;28;20035;-82
2022/10/03 00:48:07;;;;;;;1.88;0.50;;;9.60;99.90;;;;;;21090500;28;20092;-82
2022/10/03 00:58:32;;;;;;;0.65;0.35;;;9.50;99.90;;;;;;21102436;28;20533;-82
2022/10/03 01:09:05;;;;;;;1.53;0.53;;;9.40;99.90;;;;;;21113980;27;20360;-82
2022/10/03 01:19:46;;;;;;;2.20;0.70;;;9.30;99.90;;;;;;21083243;27;20713;-82
2022/10/03 01:40:28;;;;;;;1.30;0.50;;;9.30;99.90;;;;;;21099970;27;20583;-82
2022/10/03 02:01:30;;;;;;;1.75;0.50;;;9.20;99.90;;;;;;20834152;28;20070;-40
2022/10/03 02:11:34;;;;;;;1.83;0.50;;;9.10;99.90;;;;;;20834843;28;20487;-40
2022/10/03 02:21:47;;;;;;;3.40;0.77;;;9.10;99.90;;;;;;20825993;28;20847;-40
2022/10/03 02:32:06;;;;;;;1.83;0.65;;;9.10;99.90;;;;;;20860244;28;20585;-40
2022/10/03 02:42:44;;;;;;;1.52;1.00;;;9.00;99.90;;;;;;20855229;28;20123;-40
2022/10/03 02:53:06;;;;;;;1.07;0.40;;;9.00;99.90;;;;;;20865112;28;20895;-40
2022/10/03 03:03:35;;;;;;;0.65;0.20;;;9.00;99.90;;;;;;20937348;28;20532;-40
2022/10/03 03:14:00;;;;;;;2.47;0.73;;;8.90;99.90;;;;;;20941470;28;22157;-40
2022/10/03 03:24:15;;;;;;;4.82;1.27;;;8.90;99.90;;;;;;20936714;28;20040;-40
2022/10/03 03:34:41;;;;;;;1.50;0.52;;;8.80;99.90;;;;;;20938817;28;20086;-40
2022/10/03 03:44:42;;;;;;;1.30;0.75;;;8.70;99.90;;;;;;20953571;28;21804;-40
2022/10/03 03:55:05;;;;;;;1.60;0.88;;;8.80;99.90;;;;;;20951575;28;20105;-40
2022/10/03 04:05:22;;;;;;;3.20;0.95;;;8.70;99.90;;;;;;20946944;28;20577;-40
2022/10/03 04:15:41;;;;;;;2.00;1.20;;;8.70;99.90;;;;;;20939715;28;20174;-40
2022/10/03 04:25:59;;;;;;;1.30;0.35;;;8.60;99.90;;;;;;20939850;28;20932;-40
2022/10/03 04:36:38;;;;;;;4.90;1.10;;;8.50;99.90;;;;;;20936971;28;20082;-40
2022/10/03 04:46:48;;;;;;;;;;;8.50;99.90;;;;;;20944746;28;21863;-40
2022/10/03 04:56:58;;;;;;;0.68;0.32;;;8.60;99.90;;;;;;20934090;28;19971;-40
2022/10/03 05:07:17;;;;;;;1.83;0.38;;;8.50;99.90;;;;;;20961728;28;20126;-40
2022/10/03 05:17:51;;;;;;;7.10;0.52;;;8.50;99.90;;;;;;20951704;28;20119;-40
2022/10/03 05:28:10;;;;;;;3.63;1.23;;;8.50;99.90;;;;;;20952278;28;22703;-40
2022/10/03 05:38:14;;;;;;;0.80;0.30;;;8.50;99.90;;;;;;20952097;28;20122;-40
2022/10/03 05:48:27;;;;;;;1.75;0.40;;;8.40;99.90;;;;;;20953843;28;20464;-40
2022/10/03 05:58:47;;;;;;;1.30;0.50;;;8.50;99.90;;;;;;20944618;28;20187;-40
2022/10/03 06:08:56;;;;;;;1.50;0.50;;;8.60;99.90;;;;;;20949609;28;20984;-40
2022/10/03 06:19:34;;;;;;;0.57;0.35;;;8.80;99.90;;;;;;20932298;28;20163;-40
2022/10/03 06:30:23;;;;;;;1.42;0.75;;;9.00;99.90;;;;;;20951997;28;20461;-40
2022/10/03 06:40:52;;;;;;;3.55;1.52;;;9.30;99.90;;;;;;20855685;28;20118;-40
2022/10/03 06:51:21;;;;;;;2.58;1.15;;;9.60;99.90;;;;;;20949342;28;20578;-40
2022/10/03 07:01:54;;;;;;;2.58;0.80;;;10.00;99.90;;;;;;20939167;28;20197;-40
2022/10/03 07:12:26;;;;;;;2.22;0.70;;;10.20;99.90;;;;;;20929717;28;22033;-40
2022/10/03 07:22:58;;;;;;;2.35;1.48;;;10.50;99.90;;;;;;20920950;28;20044;-40
2022/10/03 07:33:28;;;;;;;1.75;1.00;;;10.80;99.90;;;;;;20926517;28;22170;-40
2022/10/03 07:43:47;;;;;;;3.58;1.20;;;11.00;99.90;;;;;;20936500;28;20024;-39
2022/10/03 07:54:43;;;;;;;3.13;1.40;;;11.30;99.90;;;;;;20919697;28;21923;-39
2022/10/03 08:04:59;;;;;;;1.95;0.85;;;11.40;99.90;;;;;;20840677;28;20049;-39
2022/10/03 08:15:20;;;;;;;1.92;0.80;;;11.60;99.90;;;;;;20926836;28;20134;-40
2022/10/03 08:25:21;;;;;;;2.00;0.70;;;11.80;99.90;;;;;;20948336;28;20234;-39
2022/10/03 08:35:34;;;;;;;2.05;0.73;;;12.00;99.90;;;;;;20939708;28;20131;-39
2022/10/03 08:45:53;;;;;;;1.58;0.73;;;12.30;99.90;;;;;;20939016;28;20630;-39
2022/10/03 08:56:41;;;;;;;2.30;1.15;;;12.70;99.90;;;;;;20933741;28;20491;-39
2022/10/03 09:07:02;;;;;;;3.08;0.77;;;13.00;99.90;;;;;;20915459;28;20132;-39
2022/10/03 09:17:46;;;;;;;4.68;0.80;;;13.30;99.90;;;;;;20919524;28;20349;-40
2022/10/03 09:27:56;;;;;;;2.22;0.60;;;13.50;99.90;;;;;;20944062;28;20915;-39
2022/10/03 09:38:30;;;;;;;1.73;0.50;;;13.70;99.90;;;;;;20903203;28;20036;-39
2022/10/03 09:49:12;;;;;;;5.38;0.88;;;14.00;99.90;;;;;;20933089;28;20108;-39
2022/10/03 09:59:44;;;;;;;5.43;1.30;;;14.20;99.90;;;;;;20932229;28;21689;-40
2022/10/03 10:10:22;;;;;;;1.83;0.75;;;14.40;99.90;;;;;;20969245;28;20316;-40
2022/10/03 10:20:27;;;;;;;;;;;14.70;99.90;;;;;;20983459;28;20036;-40
2022/10/03 10:31:00;;;;;;;4.13;1.02;;;15.30;99.90;;;;;;20986691;28;19920;-39
2022/10/03 10:41:29;;;;;;;2.92;0.95;;;15.80;99.90;;;;;;20905540;28;20770;-40
2022/10/03 10:52:20;;;;;;;1.27;0.30;;;16.00;99.90;;;;;;20934595;28;20574;-40
2022/10/03 11:02:36;;;;;;;5.05;1.20;;;16.20;99.90;;;;;;20947980;28;21008;-38
2022/10/03 11:13:09;;;;;;;0.93;0.50;;;16.60;99.90;;;;;;20951313;28;21267;-39
2022/10/03 11:23:44;;;;;;;1.45;0.40;;;16.70;99.90;;;;;;20854119;28;20079;-38
2022/10/03 11:34:22;;;;;;;2.00;0.55;;;17.70;99.90;;;;;;20932824;28;20132;-38
2022/10/03 11:44:36;;;;;;;3.03;0.82;;;17.90;99.90;;;;;;20924599;28;20135;-37
2022/10/03 11:54:42;;;;;;;0.93;0.30;;;18.30;99.90;;;;;;20935516;28;21920;-38
2022/10/03 12:05:20;;;;;;;1.75;0.65;;;18.00;99.90;;;;;;20954938;28;20806;-38
2022/10/03 12:15:44;;;;;;;1.13;0.20;;;18.10;99.90;;;;;;20920819;28;20127;-38
2022/10/03 12:25:48;;;;;;;2.45;0.70;;;17.60;99.90;;;;;;20962878;28;20736;-37
2022/10/03 12:35:54;;;;;;;2.58;0.80;;;17.10;99.90;;;;;;20955961;28;20072;-38
2022/10/03 12:46:09;;;;;;;3.13;1.13;;;16.90;99.90;;;;;;20956340;28;20075;-39
2022/10/03 12:56:24;;;;;;;2.53;0.70;;;16.90;99.90;;;;;;20954134;28;20036;-38
2022/10/03 13:06:53;;;;;;;2.20;0.73;;;16.90;99.90;;;;;;20944134;28;20174;-37
2022/10/03 13:17:12;;;;;;;3.60;1.40;;;17.00;99.90;;;;;;20947371;28;21784;-39
2022/10/03 13:27:16;;;;;;;2.95;0.45;;;16.80;99.90;;;;;;20955490;28;20700;-39
2022/10/03 13:37:32;;;;;;;2.25;0.75;;;16.70;99.90;;;;;;20949025;28;20076;-39
2022/10/03 13:47:45;;;;;;;2.17;1.15;;;16.70;99.90;;;;;;20940488;28;20168;-37
2022/10/03 13:58:25;;;;;;;1.73;0.50;;;16.80;99.90;;;;;;20954202;28;20044;-37
2022/10/03 14:09:00;;;;;;;1.13;0.70;;;16.70;99.90;;;;;;20946424;28;20048;-39
2022/10/03 14:19:14;;;;;;;1.45;0.35;;;16.60;99.90;;;;;;20946123;28;20966;-40
2022/10/03 14:29:24;;;;;;;1.00;0.47;;;16.40;99.90;;;;;;20949620;28;20193;-39
2022/10/03 14:39:43;;;;;;;2.10;0.73;;;16.40;99.90;;;;;;20963018;28;20102;-39
2022/10/03 14:49:55;;;;;;;1.15;0.60;;;16.20;99.90;;;;;;20955236;28;20816;-40
2022/10/03 14:59:57;;;;;;;11.25;1.80;;;16.30;99.90;;;;;;20961408;28;20044;-37
2022/10/03 15:10:00;;;;;;;1.42;0.57;;;16.40;99.90;;;;;;20960781;28;20113;-37
2022/10/03 15:20:03;;;;;;;2.15;0.75;;;16.60;99.90;;;;;;20952189;28;20122;-37
2022/10/03 15:30:05;;;;;;;3.53;0.50;;;16.40;99.90;;;;;;20913126;28;20123;-37
2022/10/03 15:40:22;;;;;;;1.70;0.60;;;16.30;99.90;;;;;;20937346;28;20149;-38
2022/10/03 15:50:29;;;;;;;3.47;1.20;;;16.40;99.90;;;;;;20933520;28;20071;-37
2022/10/03 16:00:33;;;;;;;1.42;0.50;;;16.20;99.90;;;;;;20944938;28;20082;-38
2022/10/03 16:10:46;;;;;;;3.10;0.68;;;16.10;99.90;;;;;;20931387;28;20310;-40
2022/10/03 16:20:55;;;;;;;3.05;0.68;;;16.00;99.90;;;;;;20948688;28;20230;-40
2022/10/03 16:31:01;;;;;;;2.58;0.50;;;15.70;99.90;;;;;;20960411;28;20036;-40
2022/10/03 16:41:23;;;;;;;2.83;1.13;;;15.50;99.90;;;;;;20964312;28;20055;-40
2022/10/03 16:51:38;;;;;;;1.27;0.50;;;15.10;99.90;;;;;;20975711;28;20117;-39
2022/10/03 17:01:48;;;;;;;1.92;0.65;;;14.90;99.90;;;;;;20965863;28;20883;-39
2022/10/03 17:11:54;;;;;;;3.28;1.58;;;14.70;99.90;;;;;;20980042;28;20094;-39
2022/10/03 17:21:59;;;;;;;2.40;0.60;;;14.50;99.90;;;;;;20954828;28;20060;-39
2022/10/03 17:32:01;;;;;;;1.67;1.05;;;14.40;99.90;;;;;;20942512;28;20068;-39
2022/10/03 17:42:08;;;;;;;3.60;0.70;;;14.30;99.90;;;;;;20942354;28;20086;-39
2022/10/03 17:52:22;;;;;;;2.40;0.80;;;14.10;99.90;;;;;;20939731;28;20115;-39
2022/10/03 18:02:44;;;;;;;1.65;0.65;;;14.00;99.90;;;;;;20951908;28;20071;-39
2022/10/03 18:12:51;;;;;;;1.67;0.60;;;13.80;99.90;;;;;;20952517;28;20859;-39
2022/10/03 18:23:00;;;;;;;4.97;1.02;;;13.60;99.90;;;;;;20957268;28;20043;-39
2022/10/03 18:33:05;;;;;;;3.67;1.75;;;13.40;99.90;;;;;;20958808;28;20363;-39
2022/10/03 18:43:16;;;;;;;3.55;2.03;;;13.30;99.90;;;;;;20942326;28;20718;-39
2022/10/03 18:53:26;;;;;;;7.00;2.80;;;13.10;99.90;;;;;;20952806;28;20325;-39
2022/10/03 19:03:38;;;;;;;9.48;3.38;;;13.10;99.90;;;;;;20947027;28;20074;-39
2022/10/03 19:13:56;;;;;;;6.22;3.40;;;13.10;99.90;;;;;;20946620;28;21503;-39
2022/10/03 19:24:03;;;;;;;3.30;2.20;;;13.20;99.90;;;;;;20947553;28;20067;-39
2022/10/03 19:34:10;;;;;;;;;;;13.20;99.90;;;;;;20964631;28;20041;-39
2022/10/03 19:44:26;;;;;;;3.92;1.65;;;13.20;99.90;;;;;;20956051;28;19950;-39
2022/10/03 19:54:41;;;;;;;6.00;1.83;;;13.20;99.90;;;;;;20956154;28;20099;-39
2022/10/03 20:04:49;;;;;;;3.45;1.48;;;13.20;99.90;;;;;;20948210;28;20118;-39
2022/10/03 20:14:51;;;;;;;1.92;1.02;;;13.20;99.90;;;;;;20952374;28;20045;-39
2022/10/03 20:24:53;;;;;;;2.67;1.13;;;13.30;99.90;;;;;;20970251;28;20045;-39
2022/10/03 20:34:57;;;;;;;2.38;1.08;;;13.30;99.90;;;;;;20961457;28;20079;-39
2022/10/03 20:45:22;;;;;;;4.03;1.75;;;13.20;99.90;;;;;;20954534;28;20562;-39
2022/10/03 20:55:28;;;;;;;3.42;1.65;;;13.30;99.90;;;;;;20967341;28;20040;-39
2022/10/03 21:05:40;;;;;;;8.00;2.20;;;13.20;99.90;;;;;;20965079;28;20090;-39
2022/10/03 21:15:46;;;;;;;1.45;0.77;;;13.10;99.90;;;;;;20957253;28;20666;-39
2022/10/03 21:25:49;;;;;;;1.88;0.80;;;13.00;99.90;;;;;;20963301;28;20090;-39
2022/10/03 21:35:51;;;;;;;3.10;1.30;;;12.90;99.90;;;;;;20960166;28;20028;-39
2022/10/03 21:46:15;;;;;;;5.45;1.65;;;13.00;99.90;;;;;;20960678;28;20078;-39
2022/10/03 21:56:31;;;;;;;3.72;1.75;;;13.00;99.90;;;;;;20956838;28;20537;-38
2022/10/03 22:06:42;;;;;;;4.60;1.40;;;13.10;99.90;;;;;;20953206;28;20045;-38
2022/10/03 22:17:22;;;;;;;4.28;1.63;;;13.20;99.90;;;;;;20962033;28;20266;-38
2022/10/03 22:27:33;;;;;;;2.85;1.60;;;13.20;99.90;;;;;;20898039;28;20496;-38
2022/10/03 22:37:35;;;;;;;2.80;1.70;;;13.20;99.90;;;;;;20940005;28;20884;-38
2022/10/03 22:47:36;;;;;;;8.43;2.42;;;13.30;99.90;;;;;;20949798;28;20094;-39
2022/10/03 22:57:41;;;;;;;3.13;1.58;;;13.30;99.90;;;;;;20949916;28;20090;-38
2022/10/03 23:08:09;;;;;;;2.55;1.20;;;13.30;99.90;;;;;;20939597;28;20072;-38
2022/10/03 23:18:22;;;;;;;3.40;1.40;;;13.20;99.90;;;;;;20940317;28;20063;-38
2022/10/03 23:28:47;;;;;;;4.47;2.25;;;13.20;99.90;;;;;;20940078;28;20117;-38
2022/10/03 23:38:48;;;;;;;3.70;1.35;;;13.20;99.90;;;;;;20940831;28;20246;-39
2022/10/03 23:48:54;;;;;;;5.68;2.13;;;13.10;99.90;;;;;;20940428;28;20039;-38
2022/10/03 23:59:04;;;;;;;3.22;1.95;;;13.00;99.90;;;;;;20962628;28;20077;-38
